Time;durP1;ratioP1;P1;durP2;ratioP2;P2;SDS_P1;SDS_P2;PMS_P1;PMS_P2;Temp;Humidity;BMP_temperature;BMP_pressure;BME280_temperature;BME280_humidity;BME280_pressure;Samples;Min_cycle;Max_cycle;Signal;HPM_P1;HPM_P2
2023/01/22 00:02:03;;;;;;;13.05;3.28;;;;;;;1.96;81.70;102577.72;5006511;28;20030;-58
2023/01/22 00:04:28;;;;;;;12.15;3.20;;;;;;;1.96;81.84;102575.13;5006102;28;20129;-58
2023/01/22 00:06:54;;;;;;;10.60;3.15;;;;;;;1.94;82.03;102587.22;5005459;28;20681;-55
2023/01/22 00:09:21;;;;;;;10.45;3.65;;;;;;;1.96;81.95;102583.78;4999565;28;20030;-57
2023/01/22 00:11:47;;;;;;;8.50;2.92;;;;;;;1.97;81.99;102580.31;5002239;28;20038;-55
2023/01/22 00:14:13;;;;;;;7.03;2.85;;;;;;;1.94;82.12;102584.63;5006846;28;20119;-58
2023/01/22 00:16:40;;;;;;;9.50;2.95;;;;;;;1.93;82.00;102588.06;5004718;28;20137;-58
2023/01/22 00:19:06;;;;;;;13.05;3.38;;;;;;;1.97;82.14;102584.66;4999797;28;20041;-60
2023/01/22 00:21:31;;;;;;;11.68;2.90;;;;;;;1.97;81.78;102582.91;5007397;28;20080;-57
2023/01/22 00:23:57;;;;;;;5.88;2.70;;;;;;;1.94;82.29;102585.50;5007761;28;20127;-57
2023/01/22 00:26:22;;;;;;;7.85;3.33;;;;;;;1.98;81.80;102591.59;5006371;28;20029;-58
2023/01/22 00:28:48;;;;;;;6.90;2.33;;;;;;;1.99;81.92;102585.53;5006559;28;20029;-58
2023/01/22 00:31:14;;;;;;;9.40;3.05;;;;;;;1.97;82.02;102585.50;5007211;28;20034;-55
2023/01/22 00:33:41;;;;;;;14.77;3.80;;;;;;;1.97;82.44;102584.66;5010447;28;20022;-57
2023/01/22 00:36:09;;;;;;;12.55;2.70;;;;;;;2.00;82.34;102584.69;5004393;28;20066;-62
2023/01/22 00:38:35;;;;;;;7.95;3.05;;;;;;;2.02;81.80;102585.56;5002438;28;20382;-55
2023/01/22 00:41:02;;;;;;;12.20;3.00;;;;;;;2.02;81.70;102582.97;5003850;28;20045;-60
2023/01/22 00:43:29;;;;;;;12.68;3.50;;;;;;;2.04;82.08;102583.81;5008717;28;20022;-59
2023/01/22 00:45:54;;;;;;;7.15;2.67;;;;;;;2.04;81.83;102591.63;5008939;28;20042;-55
2023/01/22 00:48:20;;;;;;;10.38;2.95;;;;;;;2.05;81.65;102579.50;5008129;28;20121;-58
2023/01/22 00:50:45;;;;;;;8.05;2.95;;;;;;;2.04;82.23;102590.75;5009951;28;20115;-57
2023/01/22 00:53:11;;;;;;;13.15;3.95;;;;;;;2.07;81.93;102594.25;5008444;28;20034;-60
2023/01/22 00:55:36;;;;;;;12.65;4.15;;;;;;;2.06;82.08;102589.03;5001673;28;20424;-58
2023/01/22 00:58:02;;;;;;;12.27;3.33;;;;;;;2.06;82.02;102589.91;5006158;28;20109;-63
2023/01/22 01:00:27;;;;;;;8.30;3.78;;;;;;;2.05;81.93;102590.75;5009923;28;20117;-55
2023/01/22 01:05:36;;;;;;;11.20;2.65;;;;;;;1.99;82.14;102585.53;5010859;28;20037;-60
2023/01/22 01:08:02;;;;;;;8.98;3.25;;;;;;;1.95;82.34;102586.34;5006193;28;20042;-61
2023/01/22 01:10:27;;;;;;;8.60;3.20;;;;;;;1.96;82.20;102590.69;5003343;28;20026;-61
2023/01/22 01:12:53;;;;;;;9.32;3.45;;;;;;;1.95;82.15;102582.06;5001895;28;20042;-59
2023/01/22 01:15:18;;;;;;;8.45;3.30;;;;;;;1.93;82.31;102582.88;5003198;28;20057;-55
2023/01/22 01:17:45;;;;;;;8.45;3.08;;;;;;;1.91;82.23;102587.19;4995721;28;20037;-57
2023/01/22 01:20:11;;;;;;;6.60;3.60;;;;;;;1.89;82.15;102586.31;5003373;28;20511;-58
2023/01/22 01:22:36;;;;;;;7.50;3.10;;;;;;;1.88;82.28;102584.59;5009717;28;20034;-58
2023/01/22 01:25:02;;;;;;;11.20;4.15;;;;;;;1.90;81.95;102585.44;5009073;28;20030;-57
2023/01/22 01:27:30;;;;;;;7.18;2.75;;;;;;;1.89;82.23;102581.13;5005460;28;20037;-60
2023/01/22 01:29:56;;;;;;;8.48;3.33;;;;;;;1.89;82.40;102587.19;5006589;28;20381;-58
2023/01/22 01:32:22;;;;;;;6.80;2.55;;;;;;;1.93;81.83;102588.06;5007275;28;20084;-58
2023/01/22 01:34:48;;;;;;;7.38;2.30;;;;;;;1.93;81.93;102588.97;5004302;28;20030;-55
2023/01/22 01:37:14;;;;;;;12.25;3.97;;;;;;;1.93;82.29;102588.06;4997875;28;20057;-58
2023/01/22 01:39:40;;;;;;;8.32;3.20;;;;;;;1.95;82.15;102586.34;5003117;28;20037;-58
2023/01/22 01:42:06;;;;;;;10.30;3.05;;;;;;;1.92;82.38;102591.53;5007144;28;20030;-59
2023/01/22 01:44:32;;;;;;;6.90;2.28;;;;;;;1.92;82.35;102589.81;5006266;28;20030;-60
2023/01/22 01:47:04;;;;;;;9.10;3.28;;;;;;;1.93;82.53;102598.44;5009086;28;20034;-56
2023/01/22 01:49:51;;;;;;;6.05;2.60;;;;;;;1.92;82.46;102597.59;5006194;28;20022;-59
2023/01/22 01:52:18;;;;;;;8.50;2.85;;;;;;;1.92;82.56;102600.19;5008680;28;20040;-57
2023/01/22 01:54:49;;;;;;;7.57;2.58;;;;;;;1.95;82.53;102596.75;5005307;28;20030;-55
2023/01/22 01:57:21;;;;;;;7.05;3.13;;;;;;;1.94;82.62;102601.09;4999952;28;20030;-60
2023/01/22 01:59:48;;;;;;;7.10;3.15;;;;;;;1.91;82.47;102603.66;5002267;28;20034;-58
2023/01/22 02:02:14;;;;;;;11.63;3.70;;;;;;;1.89;82.37;102602.75;5011123;28;20026;-63
2023/01/22 02:04:40;;;;;;;15.77;3.70;;;;;;;1.90;82.67;102612.28;5002952;28;20156;-56
2023/01/22 02:07:05;;;;;;;6.60;2.90;;;;;;;1.90;82.70;102607.09;5007200;28;20108;-57
2023/01/22 02:09:31;;;;;;;8.00;3.20;;;;;;;1.93;82.23;102614.03;5006099;28;20121;-58
2023/01/22 02:11:57;;;;;;;11.07;3.55;;;;;;;1.94;82.22;102616.66;5006910;28;20022;-57
2023/01/22 02:14:28;;;;;;;9.35;3.00;;;;;;;1.94;82.08;102618.38;4997829;28;20031;-58
2023/01/22 02:17:10;;;;;;;9.77;3.47;;;;;;;1.89;81.99;102617.47;5000392;28;20026;-59
2023/01/22 02:19:36;;;;;;;8.75;3.58;;;;;;;1.87;82.21;102619.19;5001737;28;20057;-58
2023/01/22 02:22:02;;;;;;;7.35;3.50;;;;;;;1.89;81.94;102627.88;4999702;28;20120;-58
2023/01/22 02:24:31;;;;;;;9.43;3.47;;;;;;;1.85;82.38;102626.09;4997488;28;20396;-55
2023/01/22 02:26:57;;;;;;;11.77;3.80;;;;;;;1.86;82.03;102628.69;5002706;28;20444;-57
2023/01/22 02:29:25;;;;;;;6.55;2.95;;;;;;;1.84;82.07;102625.19;5005327;28;20038;-58
2023/01/22 02:31:50;;;;;;;8.38;3.53;;;;;;;1.80;82.56;102629.50;5001331;28;20547;-58
2023/01/22 02:34:16;;;;;;;9.30;3.50;;;;;;;1.79;82.26;102624.31;5004761;28;20034;-56
2023/01/22 02:36:41;;;;;;;7.50;3.20;;;;;;;1.75;82.26;102631.19;5004854;28;20489;-59
2023/01/22 02:39:07;;;;;;;6.28;3.33;;;;;;;1.74;82.39;102633.78;5003830;28;20041;-57
2023/01/22 02:41:32;;;;;;;12.07;3.70;;;;;;;1.71;82.46;102637.22;4998320;28;20022;-60
2023/01/22 02:43:58;;;;;;;5.18;2.65;;;;;;;1.65;82.25;102634.53;5004518;28;20486;-59
2023/01/22 02:46:24;;;;;;;10.73;3.90;;;;;;;1.64;82.14;102632.81;5002672;28;20077;-55
2023/01/22 02:48:50;;;;;;;9.63;4.25;;;;;;;1.61;82.41;102632.75;5008511;28;20033;-59
2023/01/22 02:51:15;;;;;;;8.70;3.10;;;;;;;1.59;82.46;102632.75;5007549;28;20587;-55
2023/01/22 02:53:41;;;;;;;7.72;3.42;;;;;;;1.58;82.10;102635.34;5007401;28;20030;-58
2023/01/22 02:56:10;;;;;;;7.95;3.42;;;;;;;1.58;82.13;102632.75;5005979;28;20471;-57
2023/01/22 02:58:36;;;;;;;8.43;3.50;;;;;;;1.58;82.44;102635.34;5009070;28;20093;-61
2023/01/22 03:01:19;;;;;;;5.75;3.88;;;;;;;1.55;82.30;102638.78;5009388;28;20599;-63
2023/01/22 03:03:51;;;;;;;8.70;3.55;;;;;;;1.58;82.14;102641.41;5013030;28;20030;-58
2023/01/22 03:06:20;;;;;;;10.95;3.80;;;;;;;1.59;82.12;102639.69;5003064;28;20042;-55
2023/01/22 03:08:51;;;;;;;9.07;4.20;;;;;;;1.56;82.16;102639.66;5006525;28;20045;-58
2023/01/22 03:11:17;;;;;;;6.85;3.53;;;;;;;1.54;82.32;102639.63;5009018;28;20029;-59
2023/01/22 03:21:55;;;;;;;8.85;4.22;;;;;;;1.51;82.01;102648.25;5007157;28;20064;-57
2023/01/22 03:24:20;;;;;;;10.15;4.10;;;;;;;1.54;82.19;102654.34;5011015;28;20029;-58
2023/01/22 03:26:46;;;;;;;7.78;4.45;;;;;;;1.50;82.16;102643.91;5008695;28;20160;-58
2023/01/22 03:29:11;;;;;;;8.48;3.95;;;;;;;1.48;82.37;102640.44;5007276;28;20062;-57
2023/01/22 03:31:37;;;;;;;9.63;3.72;;;;;;;1.49;82.35;102655.16;5010741;28;20092;-57
2023/01/22 03:34:02;;;;;;;6.60;3.35;;;;;;;1.53;82.34;102650.84;5010666;28;20036;-57
2023/01/22 03:36:28;;;;;;;8.90;3.38;;;;;;;1.54;82.38;102654.34;5010479;28;20057;-57
2023/01/22 03:38:53;;;;;;;6.82;3.10;;;;;;;1.56;82.14;102652.63;5002436;28;20046;-60
2023/01/22 03:41:19;;;;;;;7.65;3.63;;;;;;;1.57;81.88;102647.44;5009853;28;20048;-56
2023/01/22 03:43:44;;;;;;;8.35;3.38;;;;;;;1.55;81.96;102656.06;5007324;28;20029;-55
2023/01/22 03:46:13;;;;;;;7.65;3.28;;;;;;;1.54;82.14;102651.75;5013853;28;20026;-57
2023/01/22 03:48:38;;;;;;;7.35;2.85;;;;;;;1.58;81.92;102653.53;5010530;28;20034;-55
2023/01/22 03:51:10;;;;;;;9.45;3.95;;;;;;;1.61;81.82;102659.59;5007664;28;20035;-58
2023/01/22 03:53:36;;;;;;;8.40;3.60;;;;;;;1.61;82.15;102653.53;5005723;28;20026;-61
2023/01/22 03:56:04;;;;;;;6.53;3.03;;;;;;;1.58;82.34;102648.34;5004187;28;20375;-55
2023/01/22 03:58:30;;;;;;;9.82;2.75;;;;;;;1.50;82.42;102641.31;5008594;28;20151;-58
2023/01/22 04:00:56;;;;;;;8.13;3.63;;;;;;;1.50;82.61;102656.88;5008262;28;20041;-60
2023/01/22 04:03:26;;;;;;;7.82;3.67;;;;;;;1.44;82.29;102656.81;5008892;28;20053;-57
2023/01/22 04:05:52;;;;;;;13.50;4.05;;;;;;;1.45;82.66;102655.09;5011911;28;20034;-55
2023/01/22 04:08:18;;;;;;;16.85;7.65;;;;;;;1.42;82.55;102648.16;5008249;28;20473;-56
2023/01/22 04:10:44;;;;;;;11.00;4.75;;;;;;;1.43;82.31;102660.28;5008541;28;20034;-58
2023/01/22 04:13:09;;;;;;;6.93;3.58;;;;;;;1.44;82.53;102656.81;5003322;28;20393;-57
2023/01/22 04:15:35;;;;;;;8.57;3.72;;;;;;;1.43;82.84;102662.88;5008727;28;20040;-55
2023/01/22 04:18:00;;;;;;;9.15;3.75;;;;;;;1.44;82.80;102656.81;5011558;28;20034;-56
2023/01/22 04:20:25;;;;;;;7.95;3.65;;;;;;;1.47;82.40;102659.44;5009771;28;20026;-56
2023/01/22 04:22:51;;;;;;;8.55;3.90;;;;;;;1.49;82.68;102662.06;5005565;28;20014;-55
2023/01/22 04:25:16;;;;;;;36.53;18.67;;;;;;;1.52;82.49;102665.56;5007975;28;20066;-61
2023/01/22 04:27:45;;;;;;;15.65;5.13;;;;;;;1.55;82.19;102663.84;5008071;28;20026;-63
2023/01/22 04:30:11;;;;;;;9.07;4.20;;;;;;;1.56;82.15;102666.47;5005863;28;20109;-57
2023/01/22 04:32:36;;;;;;;6.20;4.20;;;;;;;1.59;82.40;102670.84;5003539;28;20128;-59
2023/01/22 04:35:03;;;;;;;10.88;4.35;;;;;;;1.60;82.40;102673.44;5008770;28;20038;-58
2023/01/22 04:37:29;;;;;;;7.25;3.85;;;;;;;1.62;81.91;102676.91;5006593;28;20481;-61
2023/01/22 04:39:55;;;;;;;8.32;3.42;;;;;;;1.62;82.19;102665.66;5007007;28;20286;-56
2023/01/22 04:42:20;;;;;;;9.65;4.05;;;;;;;1.65;81.79;102676.06;5008758;28;20519;-55
2023/01/22 04:44:45;;;;;;;9.57;4.40;;;;;;;1.63;82.13;102675.19;5006374;28;20109;-59
2023/01/22 04:47:11;;;;;;;11.02;3.90;;;;;;;1.64;81.81;102679.53;5004027;28;20032;-58
2023/01/22 04:49:36;;;;;;;14.20;4.80;;;;;;;1.66;82.00;102680.41;5009139;28;20042;-59
2023/01/22 04:52:02;;;;;;;10.80;4.93;;;;;;;1.69;81.88;102680.44;5008808;28;20054;-60
2023/01/22 04:54:27;;;;;;;15.40;4.32;;;;;;;1.68;81.88;102684.75;5009304;28;20124;-60
2023/01/22 04:56:53;;;;;;;14.18;6.38;;;;;;;1.66;82.32;102680.41;5006820;28;20026;-61
2023/01/22 04:59:18;;;;;;;15.30;6.63;;;;;;;1.66;82.13;102678.66;5004065;28;20044;-61
2023/01/22 05:01:44;;;;;;;14.60;5.85;;;;;;;1.66;82.54;102689.06;5002805;28;20038;-63
2023/01/22 05:04:09;;;;;;;10.95;5.45;;;;;;;1.68;82.05;102689.94;5003294;28;20037;-61
2023/01/22 05:06:35;;;;;;;8.05;4.30;;;;;;;1.68;82.06;102695.13;5006142;28;20042;-59
2023/01/22 05:09:00;;;;;;;9.13;4.40;;;;;;;1.71;82.17;102696.03;5011065;28;20033;-61
2023/01/22 05:11:26;;;;;;;9.00;4.28;;;;;;;1.70;81.70;102700.34;5006318;28;20072;-61
2023/01/22 05:13:51;;;;;;;9.40;4.55;;;;;;;1.72;81.61;102697.78;5008374;28;20877;-58
2023/01/22 05:16:17;;;;;;;10.00;4.15;;;;;;;1.71;81.76;102702.09;5005012;28;20033;-60
2023/01/22 05:18:42;;;;;;;9.65;4.32;;;;;;;1.70;81.86;102699.47;5003144;28;20036;-62
2023/01/22 05:21:08;;;;;;;10.00;4.13;;;;;;;1.67;82.18;102708.97;5007219;28;20392;-60
2023/01/22 05:23:33;;;;;;;12.63;4.30;;;;;;;1.68;82.32;102707.25;5006484;28;20406;-61
2023/01/22 05:25:59;;;;;;;8.60;4.30;;;;;;;1.68;82.11;102707.25;5007058;28;20036;-61
2023/01/22 05:28:24;;;;;;;28.60;11.55;;;;;;;1.67;81.83;102715.91;5006984;28;20036;-62
2023/01/22 05:30:50;;;;;;;12.35;5.85;;;;;;;1.66;82.01;102715.00;5000402;28;20129;-59
2023/01/22 05:33:15;;;;;;;9.80;4.03;;;;;;;1.65;81.92;102712.41;5008489;28;20412;-59
2023/01/22 05:35:41;;;;;;;8.90;4.05;;;;;;;1.66;81.88;102721.94;5006177;28;20034;-62
2023/01/22 05:38:06;;;;;;;7.07;4.07;;;;;;;1.67;81.91;102721.09;5003509;28;20060;-57
2023/01/22 05:40:31;;;;;;;8.43;4.53;;;;;;;1.67;82.06;102726.28;5003971;28;20049;-62
2023/01/22 05:42:57;;;;;;;8.30;4.63;;;;;;;1.68;81.90;102728.00;5004023;28;20436;-62
2023/01/22 05:45:22;;;;;;;11.57;5.60;;;;;;;1.67;81.75;102732.31;5008205;28;20448;-60
2023/01/22 05:47:52;;;;;;;12.10;5.15;;;;;;;1.65;81.90;102739.25;5006760;28;20026;-59
2023/01/22 05:50:18;;;;;;;7.47;5.20;;;;;;;1.68;82.06;102738.41;5005103;28;20029;-62
2023/01/22 05:52:43;;;;;;;11.32;4.75;;;;;;;1.66;81.91;102740.09;5005135;28;20040;-61
2023/01/22 05:55:09;;;;;;;16.38;5.10;;;;;;;1.64;82.29;102736.63;5002846;28;20516;-61
2023/01/22 05:57:35;;;;;;;9.82;4.63;;;;;;;1.65;82.06;102738.34;5006750;28;20038;-59
2023/01/22 06:00:01;;;;;;;9.70;5.00;;;;;;;1.65;81.89;102747.03;5006672;28;20125;-61
2023/01/22 06:02:27;;;;;;;10.07;4.90;;;;;;;1.67;81.94;102732.31;4985477;28;20037;-62
2023/01/22 06:04:52;;;;;;;9.43;5.20;;;;;;;1.67;81.76;102737.50;5007682;28;20034;-60
2023/01/22 06:07:18;;;;;;;11.25;4.78;;;;;;;1.67;81.56;102747.03;5002956;28;20064;-63
2023/01/22 06:09:43;;;;;;;10.23;5.55;;;;;;;1.67;81.92;102749.63;5019954;28;20037;-63
2023/01/22 06:12:09;;;;;;;11.13;5.35;;;;;;;1.68;81.94;102746.19;5006821;28;20030;-61
2023/01/22 06:14:34;;;;;;;9.27;4.88;;;;;;;1.68;81.88;102748.78;5008371;28;20040;-62
2023/01/22 06:17:00;;;;;;;11.60;5.43;;;;;;;1.68;81.60;102756.56;5005182;28;20105;-59
2023/01/22 06:19:26;;;;;;;10.10;4.55;;;;;;;1.70;81.62;102756.56;5007854;28;20042;-62
2023/01/22 06:21:52;;;;;;;9.65;4.28;;;;;;;1.68;81.61;102764.34;5002499;28;20038;-59
2023/01/22 06:24:18;;;;;;;11.55;4.55;;;;;;;1.63;81.98;102761.72;5000493;28;20041;-61
2023/01/22 06:26:43;;;;;;;11.68;5.47;;;;;;;1.61;81.65;102755.63;5002005;28;20030;-60
2023/01/22 06:29:09;;;;;;;7.00;5.15;;;;;;;1.60;81.73;102766.84;4999399;28;20037;-62
2023/01/22 06:31:34;;;;;;;6.68;3.92;;;;;;;1.60;82.12;102766.84;5008030;28;20025;-61
2023/01/22 06:34:00;;;;;;;8.73;4.32;;;;;;;1.62;82.16;102772.94;5008914;28;20104;-61
2023/01/22 06:36:25;;;;;;;8.18;4.82;;;;;;;1.63;82.01;102781.59;5007687;28;20037;-60
2023/01/22 06:38:51;;;;;;;17.83;8.57;;;;;;;1.64;81.50;102785.94;5004864;28;20044;-62
2023/01/22 06:41:16;;;;;;;28.35;12.52;;;;;;;1.64;82.05;102783.31;4998547;28;20056;-61
2023/01/22 06:43:42;;;;;;;12.50;6.63;;;;;;;1.66;81.57;102792.00;5003762;28;20022;-63
2023/01/22 06:46:07;;;;;;;9.23;4.72;;;;;;;1.68;81.54;102795.50;5006750;28;20034;-61
2023/01/22 06:48:33;;;;;;;10.40;4.43;;;;;;;1.65;81.87;102788.56;5008642;28;20045;-61
2023/01/22 06:50:59;;;;;;;10.60;4.85;;;;;;;1.64;81.71;102792.00;5007858;28;20046;-61
2023/01/22 06:53:25;;;;;;;7.45;4.93;;;;;;;1.63;81.89;102798.03;5006164;28;20084;-61
2023/01/22 06:55:51;;;;;;;7.32;4.28;;;;;;;1.65;81.83;102808.44;5006435;28;20026;-60
2023/01/22 06:58:16;;;;;;;10.32;5.35;;;;;;;1.66;81.74;102803.25;5000747;28;20478;-62
2023/01/22 07:00:42;;;;;;;9.25;5.60;;;;;;;1.69;81.60;102802.44;5006791;28;20503;-57
2023/01/22 07:03:08;;;;;;;7.53;5.07;;;;;;;1.70;81.71;102804.19;4998205;28;20083;-63
2023/01/22 07:05:34;;;;;;;9.45;5.03;;;;;;;1.72;81.61;102811.97;4998710;28;20037;-61
2023/01/22 07:08:00;;;;;;;9.52;4.38;;;;;;;1.72;81.93;102810.25;5000821;28;20553;-62
2023/01/22 07:10:26;;;;;;;11.82;4.68;;;;;;;1.73;81.61;102814.59;4999464;28;20033;-62
2023/01/22 07:12:57;;;;;;;7.45;4.35;;;;;;;1.71;81.34;102816.31;5002951;28;20497;-62
2023/01/22 07:15:23;;;;;;;9.70;4.90;;;;;;;1.68;81.52;102817.13;5006153;28;20094;-57
2023/01/22 07:17:51;;;;;;;8.50;4.35;;;;;;;1.69;81.37;102818.00;5008449;28;20105;-61
2023/01/22 07:20:16;;;;;;;7.38;4.53;;;;;;;1.68;81.64;102822.31;4997527;28;20034;-61
2023/01/22 07:22:42;;;;;;;9.63;4.47;;;;;;;1.64;81.71;102822.25;4982440;28;20041;-58
2023/01/22 07:25:07;;;;;;;9.55;4.88;;;;;;;1.64;81.75;102830.03;4999831;28;20045;-60
2023/01/22 07:27:33;;;;;;;8.70;5.65;;;;;;;1.65;81.59;102832.69;5001727;28;20678;-60
2023/01/22 07:29:59;;;;;;;8.95;5.10;;;;;;;1.68;81.46;102831.84;5001470;28;20385;-61
2023/01/22 07:32:25;;;;;;;10.13;5.32;;;;;;;1.67;81.83;102827.50;5003504;28;20087;-60
2023/01/22 07:34:50;;;;;;;7.95;4.18;;;;;;;1.68;81.60;102839.63;5004508;28;20045;-58
2023/01/22 07:37:16;;;;;;;23.30;12.40;;;;;;;1.71;81.87;102841.38;5004657;28;20041;-59
2023/01/22 07:39:41;;;;;;;15.35;7.03;;;;;;;1.73;81.54;102845.75;4993761;28;20077;-57
2023/01/22 07:42:07;;;;;;;9.00;5.53;;;;;;;1.72;81.40;102836.22;5006206;28;20060;-61
2023/01/22 07:44:32;;;;;;;10.93;4.78;;;;;;;1.74;81.35;102831.03;5003543;28;20397;-59
2023/01/22 07:46:58;;;;;;;14.10;6.82;;;;;;;1.77;81.55;102831.94;5031723;23;20065;-51
2023/01/22 07:49:23;;;;;;;11.73;6.10;;;;;;;1.78;81.52;102827.63;4985076;28;20524;-50
2023/01/22 07:51:51;;;;;;;12.18;6.10;;;;;;;1.78;81.57;102822.44;4990057;28;20373;-54
2023/01/22 07:54:16;;;;;;;10.23;5.55;;;;;;;1.78;81.32;102818.13;4991841;28;20038;-54
2023/01/22 07:56:42;;;;;;;10.43;5.78;;;;;;;1.78;81.45;102825.91;4990831;28;20505;-52
2023/01/22 07:59:07;;;;;;;10.27;5.68;;;;;;;1.76;81.44;102825.00;4990037;28;20038;-52
2023/01/22 08:01:34;;;;;;;11.77;5.53;;;;;;;1.76;81.43;102818.97;4993074;28;20022;-53
2023/01/22 08:04:00;;;;;;;9.55;5.50;;;;;;;1.75;81.34;102837.97;4989588;28;20497;-52
2023/01/22 08:06:25;;;;;;;9.15;5.03;;;;;;;1.70;81.60;102824.94;4976334;28;20030;-54
2023/01/22 08:08:51;;;;;;;10.07;5.30;;;;;;;1.69;81.49;102828.38;4983448;28;20046;-53
2023/01/22 08:11:16;;;;;;;12.13;5.93;;;;;;;1.70;81.74;102840.53;4994013;28;20073;-51
2023/01/22 08:13:42;;;;;;;8.38;4.10;;;;;;;1.73;81.58;102844.88;4993055;28;20026;-50
2023/01/22 08:16:08;;;;;;;10.25;5.55;;;;;;;1.77;81.69;102846.66;4992044;28;20125;-52
2023/01/22 08:18:34;;;;;;;11.10;6.07;;;;;;;1.79;81.38;102845.81;4993749;28;20307;-53
2023/01/22 08:21:00;;;;;;;12.40;6.50;;;;;;;1.83;81.57;102850.22;4986961;28;20064;-51
2023/01/22 08:23:25;;;;;;;11.85;5.50;;;;;;;1.87;81.21;102848.50;4985870;28;20062;-52
2023/01/22 08:25:51;;;;;;;12.30;5.82;;;;;;;1.90;81.01;102855.47;4988940;28;20402;-51
2023/01/22 08:28:16;;;;;;;11.13;5.65;;;;;;;1.93;80.97;102855.50;4987320;28;20470;-53
2023/01/22 08:30:42;;;;;;;12.27;5.43;;;;;;;1.93;81.17;102859.00;4979486;28;20057;-51
2023/01/22 08:33:07;;;;;;;33.92;17.10;;;;;;;1.97;81.18;102859.88;4983755;28;20018;-55
2023/01/22 08:35:33;;;;;;;14.57;6.07;;;;;;;1.99;81.19;102865.97;4977074;28;20046;-52
2023/01/22 08:38:00;;;;;;;18.45;7.93;;;;;;;2.04;81.30;102866.88;4979134;28;20034;-52
2023/01/22 08:40:26;;;;;;;15.02;7.50;;;;;;;2.06;80.85;102866.91;4981427;28;20068;-53
2023/01/22 08:42:53;;;;;;;11.70;6.53;;;;;;;2.11;81.42;102878.25;4985219;28;20057;-52
2023/01/22 08:45:18;;;;;;;13.48;6.55;;;;;;;2.12;80.76;102870.47;4975881;28;20109;-53
2023/01/22 08:47:44;;;;;;;13.38;7.07;;;;;;;2.15;81.01;102885.19;4980660;28;20264;-54
2023/01/22 08:50:10;;;;;;;18.08;7.75;;;;;;;2.17;80.84;102885.25;4988751;28;20367;-54
2023/01/22 08:52:35;;;;;;;13.85;7.50;;;;;;;2.19;80.93;102887.00;4989590;28;20026;-51
2023/01/22 08:55:01;;;;;;;11.40;6.55;;;;;;;2.22;81.24;102884.44;4979948;28;20428;-52
2023/01/22 08:57:26;;;;;;;13.35;7.57;;;;;;;2.24;81.08;102887.03;4986821;28;20069;-55
2023/01/22 08:59:52;;;;;;;18.42;8.70;;;;;;;2.28;80.97;102892.28;4977323;28;20031;-54
2023/01/22 09:02:17;;;;;;;18.23;7.45;;;;;;;2.31;80.96;102900.97;4987222;28;20057;-51
2023/01/22 09:04:44;;;;;;;18.30;8.55;;;;;;;2.32;80.97;102893.22;4982770;28;20062;-54
2023/01/22 09:07:09;;;;;;;15.27;8.35;;;;;;;2.35;80.90;102901.00;4983614;28;20038;-52
2023/01/22 09:09:35;;;;;;;17.17;8.52;;;;;;;2.35;80.86;102902.75;4975260;28;20032;-49
2023/01/22 09:12:00;;;;;;;17.05;8.23;;;;;;;2.35;80.72;102908.81;4985107;28;20042;-52
2023/01/22 09:14:26;;;;;;;16.90;7.93;;;;;;;2.34;80.75;102916.59;4990390;28;20482;-53
2023/01/22 09:16:52;;;;;;;18.98;8.18;;;;;;;2.35;80.91;102919.19;4989694;28;20046;-51
2023/01/22 09:19:17;;;;;;;18.30;8.63;;;;;;;2.37;80.91;102924.44;4987446;28;20034;-53
2023/01/22 09:21:43;;;;;;;11.60;5.63;;;;;;;2.34;80.79;102917.50;4986438;28;20030;-52
2023/01/22 09:24:08;;;;;;;17.65;7.93;;;;;;;2.36;80.85;102912.31;4967913;28;20033;-52
2023/01/22 09:26:35;;;;;;;16.77;8.43;;;;;;;2.35;80.72;102914.00;4977604;28;20041;-51
2023/01/22 09:29:04;;;;;;;17.27;8.02;;;;;;;2.36;80.70;102920.94;4984172;28;20023;-51
2023/01/22 09:31:34;;;;;;;14.30;7.40;;;;;;;2.37;80.52;102916.63;4970581;28;20041;-50
2023/01/22 09:34:00;;;;;;;25.75;9.10;;;;;;;2.37;80.68;102919.25;4972416;28;20681;-51
2023/01/22 09:36:26;;;;;;;12.07;5.22;;;;;;;2.34;80.42;102920.09;4984732;28;20050;-53
2023/01/22 09:38:51;;;;;;;15.88;7.43;;;;;;;2.36;80.38;102914.91;4981853;28;20037;-50
2023/01/22 09:41:30;;;;;;;15.95;8.15;;;;;;;2.34;80.55;102912.28;4977871;28;20092;-52
2023/01/22 09:44:04;;;;;;;20.50;10.23;;;;;;;2.36;80.37;102913.16;4973136;28;20148;-52
2023/01/22 09:46:35;;;;;;;21.83;9.73;;;;;;;2.37;80.55;102914.91;4981013;28;20037;-55
2023/01/22 09:49:18;;;;;;;16.25;8.35;;;;;;;2.42;80.43;102914.97;4982153;28;20572;-54
2023/01/22 09:51:51;;;;;;;17.50;8.57;;;;;;;2.43;80.18;102914.97;4978472;28;20033;-51
2023/01/22 09:54:16;;;;;;;16.85;9.70;;;;;;;2.46;80.25;102921.06;4976079;28;20066;-53
2023/01/22 09:56:49;;;;;;;20.52;9.15;;;;;;;2.49;80.46;102921.97;4981745;28;20158;-52
2023/01/22 09:59:21;;;;;;;17.80;9.05;;;;;;;2.51;80.25;102928.06;4980153;28;20039;-54
2023/01/22 10:01:53;;;;;;;17.50;9.55;;;;;;;2.51;80.22;102929.78;4972901;28;20030;-51
2023/01/22 10:04:32;;;;;;;23.92;8.65;;;;;;;2.50;80.33;102921.13;5008182;28;20033;-52
2023/01/22 10:07:00;;;;;;;28.25;13.93;;;;;;;2.53;80.60;102923.75;4977422;28;20038;-54
2023/01/22 10:09:29;;;;;;;16.95;8.52;;;;;;;2.55;80.13;102928.97;4983281;28;20445;-54
2023/01/22 10:11:57;;;;;;;18.80;9.45;;;;;;;2.53;80.17;102925.47;4983414;28;20108;-53
2023/01/22 10:14:27;;;;;;;18.52;8.70;;;;;;;2.54;80.28;102928.09;4979263;28;20563;-53
2023/01/22 10:16:54;;;;;;;18.52;7.95;;;;;;;2.58;80.22;102929.00;4978913;28;20460;-51
2023/01/22 10:19:27;;;;;;;19.00;9.07;;;;;;;2.61;80.22;102926.44;4981800;28;20030;-52
2023/01/22 10:22:01;;;;;;;18.15;9.00;;;;;;;2.66;80.12;102923.88;4984009;28;20085;-53
2023/01/22 10:24:28;;;;;;;17.40;9.45;;;;;;;2.69;80.15;102940.38;4982796;28;20053;-53
2023/01/22 10:26:54;;;;;;;19.17;9.85;;;;;;;2.72;79.96;102937.81;4985214;28;20061;-52
2023/01/22 10:29:28;;;;;;;19.17;8.50;;;;;;;2.78;80.09;102937.00;4982703;28;20050;-51
2023/01/22 10:32:02;;;;;;;18.48;8.60;;;;;;;2.81;80.10;102941.34;4982640;28;20043;-51
2023/01/22 10:34:31;;;;;;;20.63;9.80;;;;;;;2.86;79.72;102931.88;4989197;28;20121;-51
2023/01/22 10:37:02;;;;;;;17.08;8.43;;;;;;;2.89;79.56;102937.13;4985029;28;20049;-53
2023/01/22 10:39:39;;;;;;;20.30;9.73;;;;;;;2.92;79.62;102929.34;4986922;28;20077;-54
2023/01/22 10:42:04;;;;;;;19.75;9.40;;;;;;;2.94;79.52;102935.44;4979624;28;20061;-55
2023/01/22 10:44:30;;;;;;;16.35;9.57;;;;;;;2.97;79.62;102932.84;4984741;28;20030;-55
2023/01/22 10:47:07;;;;;;;20.17;10.05;;;;;;;3.00;79.29;102932.88;4985048;28;20034;-55
2023/01/22 10:49:32;;;;;;;18.58;8.80;;;;;;;3.01;79.36;102926.81;4985324;28;20141;-54
2023/01/22 10:52:18;;;;;;;17.00;9.23;;;;;;;3.03;79.38;102934.63;4994464;28;20117;-53
2023/01/22 10:54:52;;;;;;;26.20;11.27;;;;;;;3.07;79.39;102935.56;4993522;28;20030;-53
2023/01/22 10:57:26;;;;;;;24.98;10.93;;;;;;;3.07;79.54;102940.75;4992382;28;20049;-54
2023/01/22 11:00:04;;;;;;;40.35;13.30;;;;;;;3.09;79.23;102931.25;4989366;28;20034;-51
2023/01/22 11:02:32;;;;;;;44.40;18.63;;;;;;;3.10;79.51;102936.44;4986668;28;20026;-53
2023/01/22 11:05:25;;;;;;;47.30;20.48;;;;;;;3.13;79.40;102930.38;4993612;28;20475;-53
2023/01/22 11:08:05;;;;;;;36.15;14.25;;;;;;;3.13;79.50;102930.38;4981968;28;20061;-53
2023/01/22 11:10:51;;;;;;;26.75;11.95;;;;;;;3.15;79.42;102928.69;4975707;28;20561;-52
2023/01/22 11:13:49;;;;;;;20.33;9.55;;;;;;;3.16;79.23;102930.41;4973168;28;20029;-51
2023/01/22 11:16:20;;;;;;;18.00;8.80;;;;;;;3.13;79.05;102927.78;4973661;28;21343;-55
2023/01/22 11:18:57;;;;;;;17.75;9.45;;;;;;;3.06;79.17;102924.25;4983119;28;20149;-55
2023/01/22 11:21:44;;;;;;;20.30;10.65;;;;;;;3.05;79.46;102928.59;4985605;28;20795;-51
2023/01/22 11:24:17;;;;;;;17.38;9.60;;;;;;;3.02;79.40;102925.97;4986657;28;20489;-52
2023/01/22 11:27:08;;;;;;;16.92;9.25;;;;;;;3.04;79.38;102921.66;4987183;28;20824;-52
2023/01/22 11:30:15;;;;;;;21.75;9.88;;;;;;;3.08;79.41;102932.94;4986060;28;20034;-53
2023/01/22 11:33:00;;;;;;;18.27;9.38;;;;;;;3.13;79.22;102925.19;4979407;28;20030;-50
2023/01/22 11:35:41;;;;;;;18.05;9.80;;;;;;;3.15;79.30;102936.47;4982291;28;20030;-55
2023/01/22 11:38:09;;;;;;;34.28;15.27;;;;;;;3.16;79.32;102933.91;4984283;28;20022;-52
2023/01/22 11:40:39;;;;;;;22.08;10.27;;;;;;;3.19;79.38;102940.84;4980263;28;20053;-52
2023/01/22 11:43:55;;;;;;;14.20;9.52;;;;;;;3.17;79.09;102943.47;4980098;28;20056;-52